Flight Track Log - Related Links

Times and Time Zones

All times are in EDT time to prevent confusion due to time zone crossing. See the N45N flight status page for this flight to view local times or setup timezone preferences in your user account.

Time Position Orientation Groundspeed Altitude Reporting Facility
EDT Latitude Longitude Course Direction KTS MPH feet Rate Location/Type
Fri 01:58:24 PM 37.4333 -122.0500 90° East 136 157 700  Level Northern Cal TRACON
Fri 01:59:24 PM 37.4333 -122.0167 90° East 143 165 2,000 1,263 Climbing Northern Cal TRACON
Fri 02:00:18 PM 37.4333 -121.9833 90° East 166 191 3,100 1,316 Climbing Northern Cal TRACON
Fri 02:01:18 PM 37.3833 -121.9833 180° South 150 173 4,500 1,050 Climbing Northern Cal TRACON
Fri 02:02:18 PM 37.3333 -122.0000 195° South 191 220 5,200 1,300 Climbing Northern Cal TRACON
Fri 02:03:18 PM 37.3000 -121.9833 158° South 153 176 7,100 1,587 Climbing Northern Cal TRACON
Fri 02:04:19 PM 37.2500 -121.9667 165° South 157 181 8,400 1,289 Climbing Northern Cal TRACON
Fri 02:05:19 PM 37.2167 -121.9500 158° South 151 174 9,700 1,250 Climbing Northern Cal TRACON
Fri 02:06:19 PM 37.1833 -121.9167 141° Southeast 151 174 10,900 1,150 Climbing Northern Cal TRACON
Fri 02:07:19 PM 37.1500 -121.8833 141° Southeast 162 186 12,000 1,050 Climbing Northern Cal TRACON
Fri 02:08:19 PM 37.1167 -121.8500 141° Southeast 161 185 13,000 971 Climbing Northern Cal TRACON
Fri 02:09:35 PM 37.0625 -121.8392 171° South 156 180 14,200 783 Climbing Oakland Center
Fri 02:10:37 PM 37.0206 -121.8581 200° South 159 183 14,800 339 Climbing Oakland Center
Fri 02:11:39 PM 36.9714 -121.8781 198° South 162 186 14,900  Climbing Oakland Center
Fri 02:13:14 PM 36.9000 -121.8833 183° South 163 188 14,800 -39 Descending Northern Cal TRACON
Fri 02:14:14 PM 36.8500 -121.9000 195° South 163 188 14,800  Level Northern Cal TRACON
Fri 02:15:14 PM 36.8000 -121.8833 165° South 164 189 14,800  Level Northern Cal TRACON
Fri 02:16:14 PM 36.7667 -121.8833 180° South 166 191 14,800  Level Northern Cal TRACON
Fri 02:17:14 PM 36.7167 -121.8833 180° South 176 203 14,800  Level Northern Cal TRACON
Fri 02:18:14 PM 36.6667 -121.9000 195° South 169 194 14,800  Level Northern Cal TRACON
Fri 02:19:14 PM 36.6500 -121.9500 247° West 156 180 14,800  Level Northern Cal TRACON
Fri 02:20:14 PM 36.6000 -121.9333 165° South 173 199 14,800  Level Northern Cal TRACON
Fri 02:21:14 PM 36.6000 -121.8833 90° East 175 201 14,800  Level Northern Cal TRACON
Fri 02:22:14 PM 36.6000 -121.8333 90° East 181 208 14,800  Level Northern Cal TRACON
Fri 02:23:14 PM 36.6000 -121.7667 90° East 188 216 14,800  Level Northern Cal TRACON
Fri 02:24:14 PM 36.6000 -121.7000 90° East 185 213 14,800  Level Northern Cal TRACON
Fri 02:25:08 PM 36.6000 -121.6500 90° East 175 201 14,800  Level Northern Cal TRACON
Fri 02:26:14 PM 36.6000 -121.5833 90° East 178 205 14,800  Level Northern Cal TRACON
Fri 02:27:14 PM 36.6500 -121.5833 360° North 165 190 14,800  Level Northern Cal TRACON
Fri 02:28:14 PM 36.6833 -121.6000 338° Northwest 163 188 14,800  Level Northern Cal TRACON
Fri 02:29:20 PM 36.6833 -121.6667 270° West 141 162 14,800  Level Northern Cal TRACON
Fri 02:30:20 PM 36.6833 -121.7167 270° West 123 142 14,800  Level Northern Cal TRACON
Fri 02:31:20 PM 36.6667 -121.7333 219° Southwest 159 183 14,800  Level Northern Cal TRACON
Fri 02:32:20 PM 36.6833 -121.8333 282° West 123 142 14,800  Level Northern Cal TRACON
Fri 02:33:21 PM 36.6833 -121.8833 270° West 140 161 14,800  Level Northern Cal TRACON
Fri 02:34:20 PM 36.6833 -121.9333 270° West 149 171 14,800 -50 Level Northern Cal TRACON
Fri 02:35:20 PM 36.6667 -121.9667 238° Southwest 177 204 14,700 -50 Descending Northern Cal TRACON
Fri 02:36:20 PM 36.6500 -121.9167 113° Southeast 176 203 14,700  Level Northern Cal TRACON
Fri 02:37:20 PM 36.6500 -121.8667 90° East 178 205 14,700  Level Northern Cal TRACON
Fri 02:38:20 PM 36.6333 -121.8000 107° East 190 219 14,700  Level Northern Cal TRACON
Fri 02:39:20 PM 36.6500 -121.7333 73° East 224 258 14,700  Level Northern Cal TRACON
Fri 02:40:20 PM 36.6500 -121.6833 90° East 182 209 14,700 -50 Level Northern Cal TRACON
Fri 02:41:21 PM 36.6333 -121.6333 113° Southeast 170 196 14,600  Descending Northern Cal TRACON
Fri 02:42:26 PM 36.6000 -121.5833 130° Southeast 167 192 14,700 48 Climbing Northern Cal TRACON
Fri 02:43:26 PM 36.5667 -121.5333 130° Southeast 170 196 14,700  Level Northern Cal TRACON
Fri 02:44:26 PM 36.5333 -121.5000 141° Southeast 171 197 14,700  Level Northern Cal TRACON
Fri 02:45:27 PM 36.5000 -121.4500 130° Southeast 171 197 14,700  Level Northern Cal TRACON
Fri 02:46:27 PM 36.4667 -121.4000 130° Southeast 172 198 14,700 -48 Level Northern Cal TRACON
Fri 02:47:32 PM 36.4333 -121.3667 141° Southeast 172 198 14,600  Descending Northern Cal TRACON
Fri 02:48:32 PM 36.4000 -121.3167 130° Southeast 171 197 14,700 50 Climbing Northern Cal TRACON
Fri 02:49:32 PM 36.3667 -121.2667 130° Southeast 173 199 14,700  Level Northern Cal TRACON
Fri 02:50:38 PM 36.3333 -121.2167 130° Southeast 175 201 14,700  Level Northern Cal TRACON
Fri 02:51:33 PM 36.3500 -121.1833 58° Northeast 179 206 14,700  Level Northern Cal TRACON
Fri 02:52:38 PM 36.4000 -121.2167 332° Northwest 156 180 14,700  Level Northern Cal TRACON
Fri 02:53:38 PM 36.4167 -121.2500 302° West 159 183 14,700  Level Northern Cal TRACON
Fri 02:54:38 PM 36.4500 -121.3000 310° West 160 184 14,700  Level Northern Cal TRACON
Fri 02:55:39 PM 36.4833 -121.3333 321° Northwest 160 184 14,700  Level Northern Cal TRACON
Fri 02:56:45 PM 36.5167 -121.3833 310° West 161 185 14,700  Level Northern Cal TRACON
Fri 02:57:48 PM 36.5500 -121.4167 321° Northwest 160 184 14,700  Level Northern Cal TRACON
Fri 02:58:45 PM 36.5833 -121.4667 310° West 161 185 14,700  Level Northern Cal TRACON
Fri 02:59:45 PM 36.6167 -121.5000 321° Northwest 160 184 14,700 -105 Level Northern Cal TRACON
Fri 03:00:39 PM 36.6500 -121.5333 321° Northwest 169 194 14,500 -105 Descending Northern Cal TRACON
Fri 03:01:39 PM 36.6833 -121.5667 321° Northwest 165 190 14,500  Level Northern Cal TRACON
Fri 03:02:45 PM 36.6833 -121.6167 270° West 168 193 14,500  Level Northern Cal TRACON
Fri 03:03:45 PM 36.6500 -121.6667 230° Southwest 179 206 14,500  Level Northern Cal TRACON
Fri 03:04:45 PM 36.6000 -121.6500 165° South 172 198 14,500  Level Northern Cal TRACON
Fri 03:05:45 PM 36.5667 -121.6167 141° Southeast 169 194 14,500  Level Northern Cal TRACON
Fri 03:06:45 PM 36.5333 -121.5667 130° Southeast 171 197 14,500  Level Northern Cal TRACON
Fri 03:07:45 PM 36.5000 -121.5167 130° Southeast 172 198 14,500  Level Northern Cal TRACON
Fri 03:08:45 PM 36.4667 -121.4833 141° Southeast 173 199 14,500  Level Northern Cal TRACON
Fri 03:09:45 PM 36.4333 -121.4333 130° Southeast 175 201 14,500  Level Northern Cal TRACON
Fri 03:10:51 PM 36.4000 -121.3833 130° Southeast 173 199 14,500  Level Northern Cal TRACON
Fri 03:11:45 PM 36.3667 -121.3500 141° Southeast 173 199 14,500  Level Northern Cal TRACON
Fri 03:12:51 PM 36.3333 -121.3000 130° Southeast 173 199 14,500  Level Northern Cal TRACON
Fri 03:13:51 PM 36.3167 -121.2500 112° Southeast 188 216 14,500  Level Northern Cal TRACON
Fri 03:14:51 PM 36.3667 -121.2000 39° Northeast 173 199 14,500  Level Northern Cal TRACON
Fri 03:15:51 PM 36.4000 -121.1667 39° Northeast 175 201 14,500  Level Northern Cal TRACON
Fri 03:16:51 PM 36.4500 -121.1500 15° North 171 197 14,500  Level Northern Cal TRACON
Fri 03:17:52 PM 36.4833 -121.1500 360° North 170 196 14,500  Level Northern Cal TRACON
Fri 03:18:51 PM 36.5167 -121.1833 321° Northwest 163 188 14,500  Level Northern Cal TRACON
Fri 03:19:57 PM 36.5667 -121.2167 332° Northwest 161 185 14,500  Level Northern Cal TRACON
Fri 03:20:52 PM 36.5833 -121.2500 302° West 162 186 14,500  Level Northern Cal TRACON
Fri 03:21:52 PM 36.5500 -121.3000 230° Southwest 162 186 14,500  Level Northern Cal TRACON
Fri 03:22:52 PM 36.5167 -121.3333 219° Southwest 163 188 14,500  Level Northern Cal TRACON
Fri 03:23:52 PM 36.4833 -121.3833 230° Southwest 165 190 14,500  Level Northern Cal TRACON
Fri 03:24:52 PM 36.4500 -121.4167 219° Southwest 166 191 14,500  Level Northern Cal TRACON
Fri 03:25:52 PM 36.4167 -121.4500 219° Southwest 164 189 14,500  Level Northern Cal TRACON
Fri 03:26:46 PM 36.3833 -121.4833 219° Southwest 166 191 14,500  Level Northern Cal TRACON
Fri 03:27:52 PM 36.3833 -121.5333 270° West 163 188 14,500  Level Northern Cal TRACON
Fri 03:28:52 PM 36.4167 -121.5833 310° West 166 191 14,500  Level Northern Cal TRACON
Fri 03:29:52 PM 36.4500 -121.5500 39° Northeast 179 206 14,500  Level Northern Cal TRACON
Fri 03:30:52 PM 36.4833 -121.5000 50° Northeast 176 203 14,500  Level Northern Cal TRACON
Fri 03:31:52 PM 36.5167 -121.4667 39° Northeast 177 204 14,500  Level Northern Cal TRACON
Fri 03:32:53 PM 36.5500 -121.4167 50° Northeast 177 204 14,500  Level Northern Cal TRACON
Fri 03:33:53 PM 36.5833 -121.3833 39° Northeast 179 206 14,500  Level Northern Cal TRACON
Fri 03:34:52 PM 36.6000 -121.3333 67° East 184 212 14,500  Level Northern Cal TRACON
Fri 03:35:52 PM 36.5667 -121.2833 130° Southeast 174 200 14,500  Level Northern Cal TRACON
Fri 03:36:53 PM 36.5333 -121.3167 219° Southwest 166 191 14,500  Level Northern Cal TRACON
Fri 03:37:53 PM 36.5000 -121.3500 219° Southwest 162 186 14,500  Level Northern Cal TRACON
Fri 03:38:53 PM 36.4667 -121.4000 230° Southwest 164 189 14,500  Level Northern Cal TRACON
Fri 03:39:53 PM 36.4333 -121.4333 219° Southwest 163 188 14,500  Level Northern Cal TRACON
Fri 03:40:53 PM 36.4000 -121.4667 219° Southwest 163 188 14,500  Level Northern Cal TRACON
Fri 03:41:53 PM 36.4000 -121.5167 270° West 172 198 14,500  Level Northern Cal TRACON
Fri 03:42:53 PM 36.4500 -121.5167 360° North 167 192 14,500  Level Northern Cal TRACON
Fri 03:43:47 PM 36.4833 -121.5167 360° North 168 193 14,500  Level Northern Cal TRACON
Fri 03:44:48 PM 36.5333 -121.5167 360° North 169 194 14,500  Level Northern Cal TRACON
Fri 03:45:48 PM 36.5833 -121.5167 360° North 169 194 14,500  Level Northern Cal TRACON
Fri 03:46:48 PM 36.6333 -121.5167 360° North 169 194 14,500  Level Northern Cal TRACON
Fri 03:47:48 PM 36.6667 -121.5500 321° Northwest 162 186 14,500  Level Northern Cal TRACON
Fri 03:48:48 PM 36.7000 -121.5833 321° Northwest 169 194 14,500  Level Northern Cal TRACON
Fri 03:49:48 PM 36.7333 -121.6167 321° Northwest 174 200 14,500 -200 Level Northern Cal TRACON
Fri 03:50:48 PM 36.7833 -121.6333 345° North 180 207 14,100 -550 Descending Northern Cal TRACON
Fri 03:51:48 PM 36.8167 -121.6667 321° Northwest 171 197 13,400 -737 Descending Northern Cal TRACON
Fri 03:52:42 PM 36.8667 -121.6833 345° North 165 190 12,700 -783 Descending Northern Cal TRACON
Fri 03:53:43 PM 36.9000 -121.7167 321° Northwest 164 189 11,900 -793 Descending Northern Cal TRACON
Fri 03:54:43 PM 36.9333 -121.7500 321° Northwest 162 186 11,100 -800 Descending Northern Cal TRACON
Fri 03:55:43 PM 36.9833 -121.7833 332° Northwest 163 188 10,300 -958 Descending Northern Cal TRACON
Fri 03:56:42 PM 37.0167 -121.8000 338° Northwest 165 190 9,200 -950 Descending Northern Cal TRACON
Fri 03:57:43 PM 37.0500 -121.8333 321° Northwest 148 170 8,400 -950 Descending Northern Cal TRACON
Fri 03:58:42 PM 37.0833 -121.8667 321° Northwest 141 162 7,300 -1,050 Descending Northern Cal TRACON
Fri 03:59:43 PM 37.1167 -121.8833 338° Northwest 142 163 6,300 -992 Descending Northern Cal TRACON
Fri 04:00:43 PM 37.1500 -121.9167 321° Northwest 152 175 5,300 -850 Descending Northern Cal TRACON
Fri 04:01:43 PM 37.2000 -121.9333 345° North 143 165 4,600 -750 Descending Northern Cal TRACON
Fri 04:02:43 PM 37.2333 -121.9500 338° Northwest 140 161 3,800 -750 Descending Northern Cal TRACON
Fri 04:03:43 PM 37.2667 -121.9667 338° Northwest 139 160 3,100 -700 Descending Northern Cal TRACON
Fri 04:04:43 PM 37.3000 -121.9833 338° Northwest 136 157 2,400 -700 Descending Northern Cal TRACON
Fri 04:05:43 PM 37.3333 -122.0000 338° Northwest 132 152 1,700 -650 Descending Northern Cal TRACON
Fri 04:06:43 PM 37.3667 -122.0167 338° Northwest 121 139 1,100 -600 Descending Northern Cal TRACON
Fri 04:08:00 PM 37.4161 -122.0491 152° Southeast  Level Estimated

Login

Don't have an account? Register now (free) for customized features, flight alerts, and more!